createdAt,value
2018-08-20T00:04:18.659Z,26.1
2018-08-20T00:09:16.510Z,26.1
2018-08-20T00:14:14.420Z,26
2018-08-20T00:19:12.350Z,26
2018-08-20T00:24:10.415Z,25.5
2018-08-20T00:29:08.341Z,25.9
2018-08-20T00:34:06.378Z,25.9
2018-08-20T00:39:04.217Z,25.8
2018-08-20T00:44:02.295Z,25.3
2018-08-20T00:49:00.278Z,25.7
2018-08-20T00:53:58.185Z,25.7
2018-08-20T00:58:56.252Z,25.6
2018-08-20T01:03:54.184Z,25.6
2018-08-20T01:08:52.085Z,25.6
2018-08-20T01:13:49.957Z,25.5
2018-08-20T01:18:47.943Z,25.5
2018-08-20T01:23:45.992Z,25.5
2018-08-20T01:28:43.618Z,25.4
2018-08-20T01:33:41.440Z,25.4
2018-08-20T01:38:39.371Z,25.3
2018-08-20T01:43:37.369Z,25.3
2018-08-20T01:48:35.457Z,24.8
2018-08-20T01:53:33.482Z,25.2
2018-08-20T01:58:31.538Z,25.2
2018-08-20T02:03:29.563Z,25.1
2018-08-20T02:08:27.555Z,25.1
2018-08-20T02:13:25.531Z,25
2018-08-20T02:18:23.312Z,24.9
2018-08-20T02:23:21.435Z,25
2018-08-20T02:28:19.450Z,24.9
2018-08-20T02:33:17.333Z,24.9
2018-08-20T02:38:15.385Z,24.9
2018-08-20T02:43:13.349Z,24.8
2018-08-20T02:48:11.237Z,24.8
2018-08-20T02:53:09.248Z,24.7
2018-08-20T02:58:06.809Z,24.7
2018-08-20T03:03:04.677Z,24.7
2018-08-20T03:08:02.526Z,24.6
2018-08-20T03:13:00.497Z,24.6
2018-08-20T03:17:58.330Z,24.5
2018-08-20T03:22:56.114Z,24.5
2018-08-20T03:27:54.077Z,24.5
2018-08-20T03:32:52.051Z,24.4
2018-08-20T03:37:49.950Z,24.4
2018-08-20T03:42:47.751Z,24.4
2018-08-20T03:47:45.742Z,24.3
2018-08-20T03:52:43.729Z,24.3
2018-08-20T03:57:41.017Z,24.2
2018-08-20T04:02:38.899Z,24.2
2018-08-20T04:07:36.640Z,24.2
2018-08-20T04:12:34.509Z,24.1
2018-08-20T04:17:32.450Z,24.1
2018-08-20T04:22:30.487Z,23.6
2018-08-20T04:27:28.493Z,24.1
2018-08-20T04:32:26.455Z,24.1
2018-08-20T04:37:24.033Z,24.1
2018-08-20T04:42:21.895Z,24.1
2018-08-20T04:47:19.800Z,24.1
2018-08-20T04:52:17.781Z,24.1
2018-08-20T04:57:15.687Z,24
2018-08-20T05:02:13.702Z,24
2018-08-20T05:07:11.994Z,24
2018-08-20T05:12:10.069Z,24
2018-08-20T05:17:07.830Z,24
2018-08-20T05:22:05.477Z,23.9
2018-08-20T05:27:03.623Z,23.9
2018-08-20T05:32:01.776Z,23.9
2018-08-20T05:36:59.756Z,23.9
2018-08-20T05:41:57.683Z,23.9
2018-08-20T05:46:55.889Z,23.9
2018-08-20T05:51:53.696Z,23.9
2018-08-20T05:56:51.891Z,23.9
2018-08-20T06:01:50.375Z,23.9
2018-08-20T06:06:48.987Z,23.9
2018-08-20T06:11:48.620Z,23.9
2018-08-20T06:16:48.222Z,23.9
2018-08-20T06:21:46.511Z,23.9
2018-08-20T06:26:44.521Z,23.9
2018-08-20T06:31:42.587Z,24
2018-08-20T08:52:48.454Z,24.9
2018-08-20T08:57:46.379Z,25
2018-08-20T09:02:44.783Z,25
2018-08-20T09:07:42.906Z,25.1
2018-08-20T09:12:40.626Z,25.2
2018-08-20T09:17:38.644Z,25.3
2018-08-20T09:22:36.661Z,25.4
2018-08-20T09:27:34.893Z,25.5
2018-08-20T09:32:32.838Z,25.6
2018-08-20T09:37:31.141Z,25.7
2018-08-20T09:42:29.245Z,25.7
2018-08-20T09:47:27.393Z,25.8
2018-08-20T09:52:25.378Z,25.9
2018-08-20T09:57:23.452Z,26
2018-08-20T10:02:21.401Z,26
2018-08-20T10:07:19.835Z,26.1
2018-08-20T10:42:37.942Z,26.5
2018-08-20T10:47:35.974Z,26.5
2018-08-20T10:52:34.064Z,26.5
2018-08-20T10:57:32.144Z,26.6
2018-08-20T11:02:30.437Z,26.6
2018-08-20T11:07:28.633Z,26.5
2018-08-20T11:12:26.838Z,26.8
2018-08-20T11:17:25.196Z,26.8
2018-08-20T11:22:23.446Z,26.9
2018-08-20T11:27:21.566Z,26.9
2018-08-20T11:32:19.729Z,27
2018-08-20T11:37:18.092Z,27.1
2018-08-20T11:42:16.240Z,27.1
2018-08-20T11:47:14.295Z,27.2
2018-08-20T11:52:12.410Z,27.2
2018-08-20T11:57:10.355Z,27.3
2018-08-20T12:02:08.423Z,27.4
2018-08-20T12:07:06.806Z,27.4
2018-08-20T12:12:05.010Z,27.5
2018-08-20T12:17:02.964Z,27.5
2018-08-20T12:22:00.916Z,27.6
2018-08-20T12:26:58.999Z,27.5
2018-08-20T12:31:56.830Z,27.7
2018-08-20T12:36:55.014Z,27.7
2018-08-20T12:41:53.379Z,27.8
2018-08-20T12:46:51.472Z,27.8
2018-08-20T12:51:49.600Z,27.8
2018-08-20T12:56:47.607Z,27.9
2018-08-20T13:01:45.643Z,27.9
2018-08-20T13:06:43.707Z,28
2018-08-20T13:11:41.887Z,28
2018-08-20T13:16:40.164Z,28
2018-08-20T13:21:38.422Z,28.1
2018-08-20T13:26:36.506Z,28.1
2018-08-20T13:31:34.615Z,28.2
2018-08-20T13:36:32.883Z,27.4
2018-08-20T13:41:30.839Z,28.3
2018-08-20T13:46:28.897Z,28.3
2018-08-20T13:51:26.920Z,28.4
2018-08-20T13:56:25.208Z,28.4
2018-08-20T14:01:23.223Z,28.5
2018-08-20T14:06:22.403Z,28.5
2018-08-20T14:11:22.081Z,28.5
2018-08-20T14:16:20.083Z,28.6
2018-08-20T14:21:18.314Z,28.6
2018-08-20T14:26:16.383Z,28.7
2018-08-20T14:31:14.386Z,28.7
2018-08-20T14:36:12.744Z,28.6
2018-08-20T14:41:11.258Z,28.8
2018-08-20T14:46:09.859Z,28.9
2018-08-20T14:51:08.307Z,28.9
2018-08-20T14:56:06.789Z,28.9
2018-08-20T15:01:05.042Z,29
2018-08-20T15:06:03.201Z,28.7
2018-08-20T15:11:01.486Z,29
2018-08-20T15:15:59.488Z,29.1
2018-08-20T15:20:57.758Z,29.1
2018-08-20T15:25:55.738Z,29.1
2018-08-20T15:30:53.772Z,29.1
2018-08-20T15:35:51.882Z,29.2
2018-08-20T15:40:49.746Z,29.2
2018-08-20T15:45:47.825Z,29.2
2018-08-20T15:50:45.907Z,29.2
2018-08-20T15:55:43.795Z,29.2
2018-08-20T16:00:41.884Z,29.3
2018-08-20T16:05:39.942Z,29.3
2018-08-20T16:10:37.975Z,29.3
2018-08-20T16:15:36.201Z,29.3
2018-08-20T16:20:33.922Z,29.3
2018-08-20T16:25:32.054Z,29.3
2018-08-20T16:30:30.069Z,29.3
2018-08-20T16:35:28.177Z,29.3
2018-08-20T16:40:26.622Z,29.3
2018-08-20T16:45:24.775Z,29.3
2018-08-20T16:50:22.932Z,29.3
2018-08-20T16:55:21.538Z,29.3
2018-08-20T17:00:19.726Z,29.3
2018-08-20T17:05:17.885Z,29.2
2018-08-20T17:10:15.966Z,29.2
2018-08-20T17:15:13.632Z,29.2
2018-08-20T17:20:11.996Z,29.2
2018-08-20T17:25:10.038Z,29.2
2018-08-20T17:30:08.669Z,29.1
2018-08-20T17:35:07.778Z,29.1
2018-08-20T17:40:06.202Z,29.1
2018-08-20T17:45:04.155Z,29.1
2018-08-20T17:50:02.136Z,29
2018-08-20T17:54:59.897Z,29
2018-08-20T17:59:58.057Z,28.9
2018-08-20T18:04:55.968Z,28.9
2018-08-20T18:09:54.367Z,28.9
2018-08-20T18:14:52.559Z,28.8
2018-08-20T18:19:50.817Z,28.8
2018-08-20T18:24:48.701Z,28.7
2018-08-20T18:29:46.623Z,28.7
2018-08-20T18:34:44.894Z,28.6
2018-08-20T18:39:43.260Z,28.6
2018-08-20T18:44:41.663Z,28.5
2018-08-20T18:49:40.488Z,28.5
2018-08-20T18:54:39.013Z,27.8
2018-08-20T18:59:37.000Z,28.4
2018-08-20T19:04:34.624Z,28.3
2018-08-20T19:09:33.228Z,28.3
2018-08-20T19:14:31.626Z,28.3
2018-08-20T19:19:30.138Z,28.2
2018-08-20T19:24:28.024Z,28.2
2018-08-20T19:29:26.014Z,28.1
2018-08-20T19:34:23.857Z,28.1
2018-08-20T19:39:21.659Z,28
2018-08-20T19:44:19.856Z,28
2018-08-20T19:49:17.615Z,27.9
2018-08-20T19:54:15.639Z,27.9
2018-08-20T19:59:13.657Z,27.8
2018-08-20T20:04:11.795Z,27.8
2018-08-20T20:09:09.980Z,27.7
2018-08-20T20:14:08.003Z,27.7
2018-08-20T20:19:05.993Z,27.6
2018-08-20T20:24:04.004Z,27.6
2018-08-20T20:29:01.947Z,27.5
2018-08-20T20:33:59.732Z,27.5
2018-08-20T20:38:57.809Z,27.4
2018-08-20T20:43:55.760Z,27.4
2018-08-20T20:48:53.723Z,27.3
2018-08-20T20:53:51.555Z,27.3
2018-08-20T20:58:48.988Z,27.2
2018-08-20T21:03:46.945Z,27.2
2018-08-20T21:08:44.849Z,27.1
2018-08-20T21:13:42.746Z,27.1
2018-08-20T21:18:40.754Z,27
2018-08-20T21:23:38.857Z,27
2018-08-20T21:28:36.872Z,26.9
2018-08-20T21:33:34.858Z,26.9
2018-08-20T21:38:32.966Z,26.8
2018-08-20T21:43:30.450Z,26.8
2018-08-20T21:48:28.290Z,26.7
2018-08-20T21:53:26.257Z,26.7
2018-08-20T21:58:24.269Z,26.6
2018-08-20T22:03:22.324Z,26.5
2018-08-20T22:08:20.294Z,26.5
2018-08-20T22:13:18.084Z,26.5
2018-08-20T22:18:16.088Z,26.5
2018-08-20T22:23:25.192Z,25.9
2018-08-20T22:28:33.853Z,26.5
2018-08-20T22:33:31.675Z,26.4
2018-08-20T22:38:29.578Z,26.3
2018-08-20T22:43:27.605Z,25.8
2018-08-20T22:48:25.490Z,26.2
2018-08-20T22:53:23.412Z,26.2
2018-08-20T22:58:21.537Z,25.7
2018-08-20T23:03:19.521Z,26.1
2018-08-20T23:08:17.667Z,26
2018-08-20T23:13:15.737Z,26
2018-08-20T23:18:13.683Z,25.9
2018-08-20T23:23:11.659Z,25.9
2018-08-20T23:28:09.543Z,25.8
2018-08-20T23:33:07.511Z,25.8
2018-08-20T23:38:05.485Z,25.7
2018-08-20T23:43:03.571Z,25.7
2018-08-20T23:48:01.753Z,25.7
2018-08-20T23:52:59.688Z,25.5
2018-08-20T23:57:57.393Z,25.6
